Impacts METAR Board
IDs:

KCOT - Cotulla/LaSalle Cnty, TX, US

Updated at: 0500 UTC 19 Aug 2019
Potential Impact None Slight Moderate High
Time 18/17Z 18/18Z 18/19Z 18/20Z 18/21Z 18/22Z 18/23Z 19/00Z 19/01Z 19/02Z 19/03Z 19/04Z 19/05Z
Temp93 96 99 103 104 105 106 105 102 95 91 89 87
Dewpt70 68 66 64 61 59 57 58 59 71 72 72 71
Altim29.89 29.87 29.84 29.82 29.79 29.77 29.75 29.75 29.77 29.79 29.83 29.86 29.89
VIS10 10 10 10 10 10 10 10 10 10 10 10 10
CIG-- -- -- -- -- -- -- -- -- -- -- -- --
CoverFEWCLRCLRCLRCLRCLRFEWCLRFEWFEWCLRCLRCLR
FltCatVFRVFRVFRVFRVFRVFRVFRVFRVFRVFRVFRVFRVFR
WX--------------------------
WDir1800000190170170130130120130140
WSpd9 5 5 6 4 7 9 7 11 21 16 17 16
WGst-- 16 -- 17 15 16 -- -- -- 26 26 -- 21
Raw hourly METARs
KCOT 181653Z AUTO 18009KT 10SM FEW037 34/21 A2989 RMK AO2 SLP111 T03390211
KCOT 181753Z AUTO VRB05G16KT 10SM CLR 36/20 A2987 RMK AO2 SLP105 T03560200 10361 20261 58007
KCOT 181853Z AUTO VRB05KT 10SM CLR 37/19 A2984 RMK AO2 SLP096 T03720189
KCOT 181953Z AUTO VRB06G17KT 10SM CLR 39/18 A2982 RMK AO2 SLP088 T03940178
KCOT 182053Z AUTO VRB04G15KT 10SM CLR 40/16 A2979 RMK AO2 SLP079 T04000161 57026
KCOT 182153Z AUTO 19007G16KT 160V240 10SM CLR 41/15 A2977 RMK AO2 SLP071 T04060150
KCOT 182253Z AUTO 17009KT 10SM FEW075 FEW095 41/14 A2975 RMK AO2 SLP066 T04110139
KCOT 182353Z AUTO 17007KT 10SM CLR 41/14 A2975 RMK AO2 SLP065 T04060144 10417 20356 56013
KCOT 190053Z AUTO 13011KT 10SM FEW095 39/15 A2977 RMK AO2 SLP070 T03890150
KCOT 190153Z AUTO 13021G26KT 10SM FEW110 35/22 A2979 RMK AO2 PK WND 14027/0119 SLP080 T03500217
KCOT 190253Z AUTO 12016G26KT 10SM CLR 33/22 A2983 RMK AO2 PK WND 14029/0200 SLP091 T03280222 53025
KCOT 190353Z AUTO 13017KT 10SM CLR 32/22 A2986 RMK AO2 PK WND 13026/0309 SLP103 T03170222
KCOT 190453Z AUTO 14016G21KT 10SM CLR 31/22 A2989 RMK AO2 SLP113 T03060217



Page loaded:  05:25 UTC  |   10:25 PM Pacific  |   11:25 PM Mountain  |   12:25 AM Central  |   01:25 AM Eastern

 

ADVISORIES

FORECASTS

FORECASTS

OBSERVATIONS

USER TOOLS

ABOUT US